createdAt,value
2018-03-22T00:00:59.163Z,47.20
2018-03-22T00:01:59.201Z,46.92
2018-03-22T00:02:59.175Z,46.92
2018-03-22T00:03:59.212Z,46.83
2018-03-22T00:04:59.204Z,47.11
2018-03-22T00:05:59.211Z,47.30
2018-03-22T00:06:59.215Z,47.30
2018-03-22T00:07:59.212Z,47.77
2018-03-22T00:08:59.323Z,47.49
2018-03-22T00:09:59.226Z,47.68
2018-03-22T00:10:59.229Z,48.16
2018-03-22T00:11:59.238Z,48.63
2018-03-22T00:12:59.244Z,48.91
2018-03-22T00:13:59.251Z,49.29
2018-03-22T00:14:59.296Z,49.10
2018-03-22T00:15:59.276Z,49.39
2018-03-22T00:16:59.275Z,49.39
2018-03-22T00:17:59.281Z,49.58
2018-03-22T00:18:59.297Z,49.87
2018-03-22T00:19:59.297Z,50.15
2018-03-22T00:20:59.375Z,49.96
2018-03-22T00:21:59.295Z,50.34
2018-03-22T00:22:59.313Z,50.15
2018-03-22T00:23:59.319Z,50.34
2018-03-22T00:24:59.316Z,50.34
2018-03-22T00:25:59.332Z,50.15
2018-03-22T00:26:59.411Z,50.34
2018-03-22T00:27:59.365Z,50.05
2018-03-22T00:28:59.350Z,50.43
2018-03-22T00:29:59.373Z,50.81
2018-03-22T00:30:59.360Z,50.62
2018-03-22T00:31:59.376Z,50.91
2018-03-22T00:32:59.398Z,50.91
2018-03-22T00:33:59.421Z,50.91
2018-03-22T00:34:59.387Z,51.01
2018-03-22T00:35:59.428Z,50.91
2018-03-22T00:36:59.409Z,51.39
2018-03-22T00:37:59.436Z,51.39
2018-03-22T00:38:59.427Z,51.29
2018-03-22T00:39:59.414Z,51.29
2018-03-22T00:40:59.466Z,51.10
2018-03-22T00:41:59.423Z,51.39
2018-03-22T00:42:59.432Z,51.48
2018-03-22T00:43:59.598Z,51.20
2018-03-22T00:44:59.447Z,51.76
2018-03-22T00:45:59.452Z,52.24
2018-03-22T00:46:59.485Z,51.95
2018-03-22T00:47:59.470Z,51.95
2018-03-22T00:48:59.480Z,52.24
2018-03-22T00:49:59.519Z,52.33
2018-03-22T00:50:59.533Z,51.95
2018-03-22T00:51:59.511Z,51.76
2018-03-22T00:52:59.517Z,51.95
2018-03-22T00:53:59.527Z,51.76
2018-03-22T00:54:59.555Z,52.24
2018-03-22T00:55:59.549Z,52.05
2018-03-22T00:56:59.525Z,51.48
2018-03-22T00:57:59.537Z,51.67
2018-03-22T00:58:59.594Z,52.05
2018-03-22T00:59:59.567Z,51.95
2018-03-22T01:00:59.588Z,52.24
2018-03-22T01:01:59.562Z,51.86
2018-03-22T01:02:59.560Z,51.95
2018-03-22T01:03:59.571Z,51.76
2018-03-22T01:04:59.586Z,52.24
2018-03-22T01:05:59.644Z,51.86
2018-03-22T01:06:59.589Z,51.76
2018-03-22T01:07:59.601Z,51.76
2018-03-22T01:08:59.647Z,51.86
2018-03-22T01:09:59.607Z,52.05
2018-03-22T01:10:59.623Z,51.86
2018-03-22T01:11:59.675Z,52.14
2018-03-22T01:12:59.635Z,52.33
2018-03-22T01:13:59.663Z,52.33
2018-03-22T01:14:59.697Z,52.43
2018-03-22T01:15:59.651Z,52.91
2018-03-22T01:16:59.656Z,52.91
2018-03-22T01:17:59.729Z,52.91
2018-03-22T01:18:59.676Z,52.53
2018-03-22T01:19:59.687Z,52.43
2018-03-22T01:20:59.724Z,52.81
2018-03-22T01:21:59.692Z,52.43
2018-03-22T01:22:59.718Z,52.72
2018-03-22T01:23:59.731Z,53.00
2018-03-22T01:24:59.707Z,52.81
2018-03-22T01:25:59.744Z,52.72
2018-03-22T01:26:59.756Z,52.62
2018-03-22T01:27:59.802Z,52.91
2018-03-22T01:28:59.765Z,52.81
2018-03-22T01:29:59.737Z,53.57
2018-03-22T01:30:59.766Z,53.85
2018-03-22T01:31:59.757Z,54.33
2018-03-22T01:32:59.768Z,54.52
2018-03-22T01:33:59.828Z,54.43
2018-03-22T01:34:59.775Z,54.14
2018-03-22T01:35:59.810Z,54.33
2018-03-22T01:36:59.781Z,54.14
2018-03-22T01:37:59.793Z,54.90
2018-03-22T01:38:59.839Z,54.43
2018-03-22T01:39:59.845Z,55.18
2018-03-22T01:40:59.811Z,55.09
2018-03-22T01:41:59.833Z,55.47
2018-03-22T01:42:59.825Z,55.66
2018-03-22T01:43:59.834Z,55.37
2018-03-22T01:44:59.852Z,55.66
2018-03-22T01:45:59.886Z,54.71
2018-03-22T01:46:59.863Z,54.80
2018-03-22T01:47:59.856Z,55.37
2018-03-22T01:48:59.931Z,54.99
2018-03-22T01:49:59.870Z,55.57
2018-03-22T01:50:59.888Z,55.57
2018-03-22T01:51:59.917Z,55.57
2018-03-22T01:52:59.885Z,55.37
2018-03-22T01:53:59.892Z,55.37
2018-03-22T01:54:59.905Z,54.71
2018-03-22T01:55:59.932Z,55.28
2018-03-22T01:56:59.967Z,55.09
2018-03-22T01:57:59.964Z,55.09
2018-03-22T01:58:59.925Z,55.18
2018-03-22T01:59:59.929Z,55.09
2018-03-22T02:00:59.942Z,55.09
2018-03-22T02:01:59.945Z,55.57
2018-03-22T02:02:59.964Z,55.47
2018-03-22T02:04:00.120Z,55.37
2018-03-22T02:04:59.969Z,55.37
2018-03-22T02:05:59.975Z,55.28
2018-03-22T02:07:00.006Z,55.28
2018-03-22T02:07:59.981Z,55.18
2018-03-22T02:08:59.997Z,55.28
2018-03-22T02:10:00.032Z,55.18
2018-03-22T02:11:00.014Z,54.90
2018-03-22T02:12:00.026Z,54.99
2018-03-22T02:13:00.025Z,54.52
2018-03-22T02:14:00.041Z,54.61
2018-03-22T02:15:00.065Z,54.80
2018-03-22T02:16:00.041Z,54.99
2018-03-22T02:17:00.037Z,54.80
2018-03-22T02:18:00.052Z,54.90
2018-03-22T02:19:00.166Z,54.71
2018-03-22T02:20:00.069Z,54.90
2018-03-22T02:21:00.096Z,54.33
2018-03-22T02:22:00.066Z,54.05
2018-03-22T02:23:00.113Z,54.99
2018-03-22T02:24:00.083Z,54.24
2018-03-22T02:25:00.098Z,54.33
2018-03-22T02:26:00.105Z,54.30
2018-03-22T02:27:00.104Z,53.95
2018-03-22T02:28:00.126Z,54.02
2018-03-22T02:29:00.163Z,54.52
2018-03-22T02:30:00.117Z,54.43
2018-03-22T02:31:00.143Z,54.43
2018-03-22T02:32:00.201Z,54.43
2018-03-22T02:33:00.143Z,54.24
2018-03-22T02:34:00.147Z,54.43
2018-03-22T02:35:00.188Z,54.52
2018-03-22T02:36:00.172Z,53.66
2018-03-22T02:37:00.171Z,53.66
2018-03-22T02:38:00.170Z,53.76
2018-03-22T02:39:00.202Z,53.76
2018-03-22T02:40:00.179Z,53.83
2018-03-22T02:41:00.242Z,54.21
2018-03-22T02:42:00.205Z,53.83
2018-03-22T02:43:00.198Z,54.30
2018-03-22T02:44:00.252Z,53.73
2018-03-22T02:45:00.211Z,53.92
2018-03-22T02:46:00.253Z,53.45
2018-03-22T02:47:00.275Z,53.73
2018-03-22T02:48:00.230Z,53.92
2018-03-22T02:49:00.240Z,53.64
2018-03-22T02:50:00.246Z,54.11
2018-03-22T02:51:00.251Z,53.64
2018-03-22T02:52:00.258Z,53.16
2018-03-22T02:53:00.290Z,52.69
2018-03-22T02:54:00.273Z,53.07
2018-03-22T02:55:00.281Z,52.87
2018-03-22T02:56:00.331Z,53.35
2018-03-22T02:57:00.292Z,53.35
2018-03-22T02:58:00.297Z,52.78
2018-03-22T02:59:00.301Z,52.91
2018-03-22T03:00:00.418Z,52.87
2018-03-22T03:01:00.311Z,52.59
2018-03-22T03:02:00.366Z,52.50
2018-03-22T03:03:00.351Z,52.50
2018-03-22T03:04:00.344Z,52.59
2018-03-22T03:05:00.337Z,52.87
2018-03-22T03:06:00.347Z,52.31
2018-03-22T03:07:00.353Z,52.69
2018-03-22T03:08:00.409Z,52.50
2018-03-22T03:09:00.366Z,52.97
2018-03-22T03:10:00.381Z,52.87
2018-03-22T03:11:00.383Z,52.50
2018-03-22T03:12:00.388Z,52.69
2018-03-22T03:13:00.388Z,53.07
2018-03-22T03:14:00.530Z,52.69
2018-03-22T03:15:00.407Z,52.50
2018-03-22T03:16:00.422Z,52.69
2018-03-22T03:17:00.458Z,52.59
2018-03-22T03:18:00.434Z,52.78
2018-03-22T03:19:00.426Z,52.69
2018-03-22T03:20:00.433Z,52.40
2018-03-22T03:21:00.442Z,52.31
2018-03-22T03:22:00.448Z,52.02
2018-03-22T03:23:00.501Z,52.40
2018-03-22T03:24:00.461Z,52.50
2018-03-22T03:25:00.512Z,52.40
2018-03-22T03:26:00.482Z,53.09
2018-03-22T03:27:00.475Z,52.97
2018-03-22T03:28:00.487Z,52.72
2018-03-22T03:29:00.553Z,52.24
2018-03-22T03:30:00.558Z,52.24
2018-03-22T03:31:00.507Z,52.02
2018-03-22T03:32:00.526Z,51.93
2018-03-22T03:33:00.521Z,52.02
2018-03-22T03:34:00.525Z,52.40
2018-03-22T03:35:00.531Z,51.93
2018-03-22T03:36:00.605Z,51.93
2018-03-22T03:37:00.538Z,51.93
2018-03-22T03:38:00.544Z,52.31
2018-03-22T03:39:00.556Z,52.22
2018-03-22T03:40:00.595Z,52.22
2018-03-22T03:41:00.561Z,52.12
2018-03-22T03:42:00.641Z,52.02
2018-03-22T03:43:00.600Z,51.93
2018-03-22T03:44:00.590Z,52.12
2018-03-22T03:45:00.631Z,52.02
2018-03-22T03:46:00.613Z,52.02
2018-03-22T03:47:00.605Z,52.31
2018-03-22T03:48:00.635Z,52.12
2018-03-22T03:49:00.622Z,52.12
2018-03-22T03:50:00.692Z,51.93
2018-03-22T03:51:00.671Z,51.93
2018-03-22T03:52:00.651Z,52.12
2018-03-22T03:53:00.651Z,52.12
2018-03-22T03:54:00.675Z,51.83
2018-03-22T03:55:00.670Z,52.12
2018-03-22T03:56:00.689Z,52.22
2018-03-22T03:57:00.700Z,51.55
2018-03-22T03:58:00.667Z,52.02
2018-03-22T03:59:00.698Z,52.12
2018-03-22T04:00:00.683Z,51.83
2018-03-22T04:01:00.715Z,51.26
2018-03-22T04:02:00.695Z,51.45
2018-03-22T04:03:00.744Z,51.36
2018-03-22T04:04:00.753Z,52.02
2018-03-22T04:05:00.713Z,52.02
2018-03-22T04:06:00.720Z,51.36
2018-03-22T04:07:00.725Z,51.55
2018-03-22T04:08:00.757Z,51.36
2018-03-22T04:09:00.791Z,51.17
2018-03-22T04:10:00.749Z,51.36
2018-03-22T04:11:00.749Z,51.55
2018-03-22T04:12:00.759Z,50.98
2018-03-22T04:13:00.765Z,51.07
2018-03-22T04:14:00.804Z,51.17
2018-03-22T04:15:00.829Z,51.17
2018-03-22T04:16:00.779Z,51.26
2018-03-22T04:17:00.828Z,51.17
2018-03-22T04:18:00.795Z,51.26
2018-03-22T04:19:00.800Z,51.36
2018-03-22T04:20:00.810Z,51.07
2018-03-22T04:21:00.816Z,50.41
2018-03-22T04:22:00.834Z,50.98
2018-03-22T04:23:00.853Z,51.07
2018-03-22T04:24:00.886Z,50.89
2018-03-22T04:25:00.836Z,50.79
2018-03-22T04:26:00.867Z,50.79
2018-03-22T04:27:00.851Z,50.60
2018-03-22T04:28:00.903Z,50.89
2018-03-22T04:29:00.863Z,51.26
2018-03-22T04:30:00.926Z,51.26
2018-03-22T04:31:00.878Z,50.60
2018-03-22T04:32:00.883Z,50.70
2018-03-22T04:33:00.898Z,51.17
2018-03-22T04:34:00.957Z,50.70
2018-03-22T04:35:00.902Z,51.17
2018-03-22T04:36:00.983Z,51.07
2018-03-22T04:37:00.913Z,50.51
2018-03-22T04:38:00.924Z,50.60
2018-03-22T04:39:00.935Z,51.17
2018-03-22T04:40:00.949Z,50.89
2018-03-22T04:41:01.018Z,51.36
2018-03-22T04:42:00.982Z,50.70
2018-03-22T04:43:00.961Z,50.79
2018-03-22T04:44:00.968Z,50.89
2018-03-22T04:45:00.967Z,50.98
2018-03-22T04:46:01.035Z,51.26
2018-03-22T04:47:00.982Z,51.17
2018-03-22T04:48:01.007Z,50.79
2018-03-22T04:49:00.981Z,51.17
2018-03-22T04:50:01.045Z,51.36
2018-03-22T04:51:01.046Z,51.36
2018-03-22T04:52:01.006Z,51.36
2018-03-22T04:53:01.006Z,51.55
2018-03-22T04:54:01.024Z,51.17
2018-03-22T04:55:01.018Z,51.36
2018-03-22T04:56:01.059Z,50.98
2018-03-22T04:57:01.065Z,51.17
2018-03-22T04:58:01.054Z,51.17
2018-03-22T04:59:01.053Z,50.79
2018-03-22T05:00:01.092Z,50.98
2018-03-22T05:01:01.059Z,51.55
2018-03-22T05:02:01.087Z,51.26
2018-03-22T05:03:01.107Z,50.98
2018-03-22T05:04:01.079Z,51.17
2018-03-22T05:05:01.114Z,51.36
2018-03-22T05:06:01.089Z,50.98
2018-03-22T05:07:01.097Z,51.07
2018-03-22T05:08:01.105Z,51.72
2018-03-22T05:09:01.157Z,51.74
2018-03-22T05:10:01.130Z,51.83
2018-03-22T05:11:01.180Z,52.02
2018-03-22T05:12:01.138Z,51.93
2018-03-22T05:13:01.131Z,52.12
2018-03-22T05:14:01.144Z,51.14
2018-03-22T05:15:01.191Z,51.17
2018-03-22T05:16:01.174Z,51.64
2018-03-22T05:17:01.166Z,51.81
2018-03-22T05:18:01.208Z,52.12
2018-03-22T05:19:01.192Z,52.22
2018-03-22T05:20:01.194Z,51.74
2018-03-22T05:21:01.237Z,51.83
2018-03-22T05:22:01.214Z,51.74
2018-03-22T05:23:01.212Z,51.45
2018-03-22T05:24:01.206Z,51.55
2018-03-22T05:25:01.212Z,51.55
2018-03-22T05:26:01.214Z,51.36
2018-03-22T05:27:01.269Z,51.55
2018-03-22T05:28:01.260Z,51.64
2018-03-22T05:29:01.230Z,51.36
2018-03-22T05:30:01.339Z,51.64
2018-03-22T05:31:01.246Z,52.12
2018-03-22T05:32:01.242Z,51.26
2018-03-22T05:33:01.294Z,51.45
2018-03-22T05:34:01.257Z,51.64
2018-03-22T05:35:01.271Z,52.22
2018-03-22T05:36:01.275Z,51.64
2018-03-22T05:37:01.286Z,51.26
2018-03-22T05:38:01.305Z,51.74
2018-03-22T05:39:01.414Z,51.45
2018-03-22T05:40:01.297Z,51.64
2018-03-22T05:41:01.303Z,52.02
2018-03-22T05:42:01.311Z,51.36
2018-03-22T05:43:01.314Z,51.36
2018-03-22T05:44:01.337Z,51.64
2018-03-22T05:45:01.378Z,51.17
2018-03-22T05:46:01.373Z,51.55
2018-03-22T05:47:01.342Z,51.45
2018-03-22T05:48:01.368Z,51.64
2018-03-22T05:49:01.352Z,51.36
2018-03-22T05:50:01.357Z,51.36
2018-03-22T05:51:01.367Z,51.17
2018-03-22T05:52:01.430Z,51.93
2018-03-22T05:53:01.375Z,52.02
2018-03-22T05:54:01.384Z,51.93
2018-03-22T05:55:01.418Z,51.74
2018-03-22T05:56:01.393Z,52.02
2018-03-22T05:57:01.403Z,51.83
2018-03-22T05:58:01.468Z,52.02
2018-03-22T05:59:01.411Z,52.31
2018-03-22T06:00:01.416Z,51.93
2018-03-22T06:01:01.462Z,52.12
2018-03-22T06:02:01.450Z,51.93
2018-03-22T06:03:01.434Z,52.31
2018-03-22T06:04:01.471Z,52.40
2018-03-22T06:05:01.473Z,52.47
2018-03-22T06:06:01.452Z,52.69
2018-03-22T06:07:01.456Z,52.87
2018-03-22T06:08:01.472Z,53.61
2018-03-22T06:09:01.512Z,53.64
2018-03-22T06:10:01.476Z,53.92
2018-03-22T06:11:01.485Z,54.02
2018-03-22T06:12:01.507Z,53.83
2018-03-22T06:13:01.513Z,54.11
2018-03-22T06:14:01.512Z,54.02
2018-03-22T06:15:01.538Z,54.21
2018-03-22T06:16:01.549Z,54.30
2018-03-22T06:17:01.572Z,54.30
2018-03-22T06:18:01.531Z,54.87
2018-03-22T06:19:01.534Z,55.25
2018-03-22T06:20:01.581Z,54.97
2018-03-22T06:21:01.563Z,55.63
2018-03-22T06:22:01.551Z,54.87
2018-03-22T06:23:01.590Z,55.54
2018-03-22T06:24:01.564Z,55.63
2018-03-22T06:25:01.564Z,55.63
2018-03-22T06:26:01.628Z,55.63
2018-03-22T06:27:01.599Z,54.97
2018-03-22T06:28:01.583Z,55.35
2018-03-22T06:29:01.600Z,54.87
2018-03-22T06:30:01.596Z,54.97
2018-03-22T06:31:01.602Z,54.39
2018-03-22T06:32:01.788Z,54.78
2018-03-22T06:33:01.671Z,54.97
2018-03-22T06:34:01.623Z,55.06
2018-03-22T06:35:01.633Z,54.78
2018-03-22T06:36:01.662Z,54.11
2018-03-22T06:37:01.638Z,54.30
2018-03-22T06:38:01.688Z,53.83
2018-03-22T06:39:01.653Z,54.30
2018-03-22T06:40:01.670Z,54.21
2018-03-22T06:41:01.666Z,54.49
2018-03-22T06:42:01.670Z,53.83
2018-03-22T06:43:01.802Z,53.64
2018-03-22T06:44:01.700Z,53.92
2018-03-22T06:45:01.756Z,53.64
2018-03-22T06:46:01.696Z,53.35
2018-03-22T06:47:01.740Z,53.64
2018-03-22T06:48:01.711Z,53.45
2018-03-22T06:49:01.794Z,53.16
2018-03-22T06:50:01.722Z,54.02
2018-03-22T06:51:01.781Z,53.73
2018-03-22T06:52:01.769Z,53.64
2018-03-22T06:53:01.744Z,53.64
2018-03-22T06:54:01.757Z,53.35
2018-03-22T06:55:01.809Z,53.73
2018-03-22T06:56:01.761Z,53.35
2018-03-22T06:57:01.871Z,53.73
2018-03-22T06:58:01.777Z,54.02
2018-03-22T06:59:01.778Z,54.39
2018-03-22T07:00:01.805Z,53.92
2018-03-22T07:01:01.789Z,54.21
2018-03-22T07:02:01.802Z,54.02
2018-03-22T07:03:01.876Z,54.97
2018-03-22T07:04:01.808Z,55.91
2018-03-22T07:05:01.822Z,56.39
2018-03-22T07:06:01.836Z,55.73
2018-03-22T07:07:01.837Z,56.49
2018-03-22T07:08:01.852Z,57.15
2018-03-22T07:09:01.898Z,57.62
2018-03-22T07:10:01.867Z,57.72
2018-03-22T07:11:01.856Z,58.00
2018-03-22T07:12:01.865Z,59.21
2018-03-22T07:13:01.974Z,59.02
2018-03-22T07:14:02.034Z,59.21
2018-03-22T07:15:01.923Z,59.11
2018-03-22T07:16:01.895Z,59.02
2018-03-22T07:17:01.914Z,59.40
2018-03-22T07:18:01.911Z,60.44
2018-03-22T07:19:01.912Z,60.16
2018-03-22T07:20:01.917Z,60.35
2018-03-22T07:21:01.975Z,60.53
2018-03-22T07:22:01.933Z,60.53
2018-03-22T07:23:01.939Z,60.82
2018-03-22T07:24:01.948Z,61.11
2018-03-22T07:25:01.947Z,61.58
2018-03-22T07:26:01.957Z,61.96
2018-03-22T07:27:01.987Z,61.68
2018-03-22T07:28:01.997Z,61.87
2018-03-22T07:29:01.963Z,61.30
2018-03-22T07:30:01.975Z,62.43
2018-03-22T07:31:02.032Z,62.62
2018-03-22T07:32:02.002Z,62.43
2018-03-22T07:33:02.055Z,63.10
2018-03-22T07:34:02.007Z,63.10
2018-03-22T07:35:02.022Z,62.91
2018-03-22T07:36:02.024Z,62.82
2018-03-22T07:37:02.039Z,62.91
2018-03-22T07:38:02.056Z,62.53
2018-03-22T07:39:02.032Z,62.75
2018-03-22T07:40:02.057Z,62.15
2018-03-22T07:41:02.086Z,62.72
2018-03-22T07:42:02.079Z,62.94
2018-03-22T07:43:02.046Z,62.75
2018-03-22T07:44:02.051Z,62.62
2018-03-22T07:45:02.111Z,62.72
2018-03-22T07:46:02.069Z,62.91
2018-03-22T07:47:02.065Z,62.82
2018-03-22T07:48:02.119Z,62.82
2018-03-22T07:49:02.109Z,62.82
2018-03-22T07:50:02.154Z,62.66
2018-03-22T07:51:02.090Z,62.56
2018-03-22T07:52:02.101Z,63.04
2018-03-22T07:53:02.152Z,62.85
2018-03-22T07:54:02.205Z,62.43
2018-03-22T07:55:02.119Z,62.85
2018-03-22T07:56:02.127Z,62.56
2018-03-22T07:57:02.133Z,62.46
2018-03-22T07:58:02.141Z,62.66
2018-03-22T07:59:02.141Z,62.66
2018-03-22T08:00:02.210Z,62.56
2018-03-22T08:01:02.156Z,62.46
2018-03-22T08:02:02.181Z,62.56
2018-03-22T08:03:02.191Z,62.56
2018-03-22T08:04:02.171Z,62.27
2018-03-22T08:05:02.184Z,61.99
2018-03-22T08:06:02.231Z,62.56
2018-03-22T08:07:02.217Z,62.27
2018-03-22T08:08:02.197Z,62.37
2018-03-22T08:09:02.205Z,62.94
2018-03-22T08:10:02.212Z,62.46
2018-03-22T08:11:02.220Z,62.46
2018-03-22T08:12:02.263Z,62.18
2018-03-22T08:13:02.262Z,62.56
2018-03-22T08:14:02.461Z,62.37
2018-03-22T08:15:02.303Z,62.37
2018-03-22T08:16:02.322Z,62.85
2018-03-22T08:17:02.357Z,62.46
2018-03-22T08:18:02.325Z,62.08
2018-03-22T08:19:02.260Z,62.56
2018-03-22T08:20:02.287Z,62.85
2018-03-22T08:21:02.274Z,62.75
2018-03-22T08:22:02.284Z,62.85
2018-03-22T08:23:02.304Z,62.56
2018-03-22T08:24:02.330Z,62.94
2018-03-22T08:25:02.337Z,62.46
2018-03-22T08:26:02.313Z,62.46
2018-03-22T08:27:02.312Z,63.04
2018-03-22T08:28:02.341Z,62.75
2018-03-22T08:29:02.328Z,62.85
2018-03-22T08:30:02.377Z,63.04
2018-03-22T08:31:02.351Z,63.23
2018-03-22T08:32:02.560Z,63.13
2018-03-22T08:33:02.394Z,63.04
2018-03-22T08:34:02.397Z,63.13
2018-03-22T08:35:02.444Z,63.60
2018-03-22T08:36:02.411Z,63.13
2018-03-22T08:37:02.376Z,62.85
2018-03-22T08:38:02.374Z,62.85
2018-03-22T08:39:02.386Z,62.66
2018-03-22T08:40:02.425Z,62.18
2018-03-22T08:41:02.456Z,62.66
2018-03-22T08:42:02.437Z,63.04
2018-03-22T08:43:02.413Z,63.23
2018-03-22T08:44:02.434Z,63.32
2018-03-22T08:45:02.431Z,63.42
2018-03-22T08:46:02.435Z,63.23
2018-03-22T08:47:02.509Z,63.23
2018-03-22T08:48:02.446Z,62.94
2018-03-22T08:49:02.454Z,62.85
2018-03-22T08:50:02.449Z,63.23
2018-03-22T08:51:02.455Z,63.23
2018-03-22T08:52:02.467Z,62.94
2018-03-22T08:53:02.522Z,63.04
2018-03-22T08:54:02.484Z,63.04
2018-03-22T08:55:02.528Z,62.85
2018-03-22T08:56:02.491Z,63.32
2018-03-22T08:57:02.506Z,63.23
2018-03-22T08:58:02.508Z,63.23
2018-03-22T08:59:02.538Z,63.32
2018-03-22T09:00:02.584Z,63.32
2018-03-22T09:01:02.523Z,63.23
2018-03-22T09:02:02.532Z,63.13
2018-03-22T09:03:02.537Z,63.42
2018-03-22T09:04:02.540Z,63.42
2018-03-22T09:05:02.548Z,63.13
2018-03-22T09:06:02.599Z,63.70
2018-03-22T09:07:02.595Z,63.79
2018-03-22T09:08:02.568Z,63.89
2018-03-22T09:09:02.593Z,64.56
2018-03-22T09:10:02.586Z,63.70
2018-03-22T09:11:02.585Z,63.70
2018-03-22T09:12:02.646Z,63.70
2018-03-22T09:13:02.602Z,63.60
2018-03-22T09:14:02.603Z,63.98
2018-03-22T09:15:02.609Z,63.89
2018-03-22T09:16:02.615Z,64.08
2018-03-22T09:17:02.655Z,64.46
2018-03-22T09:18:02.628Z,64.94
2018-03-22T09:19:02.632Z,64.65
2018-03-22T09:20:02.653Z,64.17
2018-03-22T09:21:02.700Z,64.17
2018-03-22T09:22:02.652Z,64.65
2018-03-22T09:23:02.659Z,64.17
2018-03-22T09:24:02.673Z,64.46
2018-03-22T09:25:02.683Z,64.27
2018-03-22T09:26:02.688Z,64.65
2018-03-22T09:27:02.750Z,64.37
2018-03-22T09:28:02.692Z,64.37
2018-03-22T09:29:02.693Z,64.75
2018-03-22T09:30:02.700Z,64.46
2018-03-22T09:31:02.708Z,64.27
2018-03-22T09:32:02.758Z,64.46
2018-03-22T09:33:02.751Z,64.27
2018-03-22T09:34:02.737Z,64.46
2018-03-22T09:35:02.748Z,64.17
2018-03-22T09:36:02.745Z,63.70
2018-03-22T09:37:02.753Z,64.46
2018-03-22T09:38:02.949Z,63.79
2018-03-22T09:39:02.797Z,64.27
2018-03-22T09:40:02.770Z,64.17
2018-03-22T09:41:02.810Z,64.08
2018-03-22T09:42:02.775Z,65.41
2018-03-22T09:43:02.812Z,64.56
2018-03-22T09:44:02.819Z,64.65
2018-03-22T09:45:02.811Z,63.98
2018-03-22T09:46:02.850Z,64.46
2018-03-22T09:47:02.848Z,64.65
2018-03-22T09:48:02.816Z,64.17
2018-03-22T09:49:02.862Z,64.65
2018-03-22T09:50:02.846Z,65.60
2018-03-22T09:51:02.846Z,65.50
2018-03-22T09:52:02.852Z,65.31
2018-03-22T09:53:02.847Z,65.31
2018-03-22T09:54:02.867Z,65.31
2018-03-22T09:55:02.970Z,65.31
2018-03-22T09:56:02.863Z,65.41
2018-03-22T09:57:02.921Z,65.41
2018-03-22T09:58:02.883Z,65.03
2018-03-22T09:59:02.910Z,65.03
2018-03-22T10:00:02.887Z,65.03
2018-03-22T10:01:02.948Z,65.31
2018-03-22T10:02:02.941Z,65.41
2018-03-22T10:03:02.916Z,65.88
2018-03-22T10:04:02.923Z,65.41
2018-03-22T10:05:02.925Z,65.69
2018-03-22T10:06:02.949Z,65.69
2018-03-22T10:07:02.964Z,65.98
2018-03-22T10:08:03.010Z,66.36
2018-03-22T10:09:02.951Z,65.98
2018-03-22T10:10:02.948Z,66.08
2018-03-22T10:11:03.009Z,66.64
2018-03-22T10:12:02.963Z,66.74
2018-03-22T10:13:02.974Z,67.12
2018-03-22T10:14:03.008Z,66.93
2018-03-22T10:15:03.001Z,66.46
2018-03-22T10:16:02.986Z,66.08
2018-03-22T10:17:02.995Z,67.02
2018-03-22T10:18:03.033Z,66.93
2018-03-22T10:19:03.041Z,66.36
2018-03-22T10:20:03.011Z,66.64
2018-03-22T10:21:03.018Z,66.93
2018-03-22T10:22:03.072Z,66.64
2018-03-22T10:23:03.078Z,66.36
2018-03-22T10:24:03.044Z,66.83
2018-03-22T10:25:03.040Z,67.12
2018-03-22T10:26:03.048Z,66.74
2018-03-22T10:27:03.054Z,66.83
2018-03-22T10:28:03.065Z,66.74
2018-03-22T10:29:03.133Z,66.93
2018-03-22T10:30:03.079Z,66.93
2018-03-22T10:31:03.084Z,66.83
2018-03-22T10:32:03.086Z,67.12
2018-03-22T10:33:03.108Z,67.31
2018-03-22T10:34:03.100Z,67.21
2018-03-22T10:35:03.143Z,67.21
2018-03-22T10:36:03.114Z,67.02
2018-03-22T10:37:03.118Z,67.12
2018-03-22T10:38:03.130Z,67.21
2018-03-22T10:39:03.155Z,66.93
2018-03-22T10:40:03.200Z,67.12
2018-03-22T10:41:03.151Z,67.02
2018-03-22T10:42:03.180Z,67.02
2018-03-22T10:43:03.151Z,66.93
2018-03-22T10:44:03.162Z,66.93
2018-03-22T10:45:03.167Z,67.31
2018-03-22T10:46:03.220Z,67.69
2018-03-22T10:47:03.183Z,67.40
2018-03-22T10:48:03.207Z,67.31
2018-03-22T10:49:03.192Z,67.21
2018-03-22T10:50:03.217Z,68.13
2018-03-22T10:51:03.211Z,68.07
2018-03-22T10:52:03.244Z,67.59
2018-03-22T10:53:03.223Z,67.97
2018-03-22T10:54:03.293Z,67.88
2018-03-22T10:55:03.247Z,67.79
2018-03-22T10:56:03.250Z,68.16
2018-03-22T10:57:03.251Z,67.88
2018-03-22T10:58:03.262Z,67.88
2018-03-22T10:59:03.268Z,67.79
2018-03-22T11:00:03.290Z,67.88
2018-03-22T11:01:03.279Z,67.50
2018-03-22T11:02:03.271Z,68.26
2018-03-22T11:03:03.285Z,68.07
2018-03-22T11:04:03.290Z,68.44
2018-03-22T11:05:03.307Z,67.50
2018-03-22T11:06:03.348Z,68.35
2018-03-22T11:07:03.310Z,68.26
2018-03-22T11:08:03.322Z,68.54
2018-03-22T11:09:03.328Z,68.07
2018-03-22T11:10:03.393Z,68.44
2018-03-22T11:11:03.325Z,67.79
2018-03-22T11:12:03.391Z,68.16
2018-03-22T11:13:03.375Z,68.16
2018-03-22T11:14:03.345Z,68.26
2018-03-22T11:15:03.347Z,68.35
2018-03-22T11:16:03.353Z,68.26
2018-03-22T11:17:03.364Z,68.54
2018-03-22T11:18:03.400Z,68.83
2018-03-22T11:19:03.406Z,68.26
2018-03-22T11:20:03.424Z,68.44
2018-03-22T11:21:03.389Z,68.07
2018-03-22T11:22:03.388Z,67.88
2018-03-22T11:23:03.452Z,68.07
2018-03-22T11:24:03.412Z,68.35
2018-03-22T11:25:03.454Z,68.64
2018-03-22T11:26:03.424Z,68.44
2018-03-22T11:27:03.458Z,69.02
2018-03-22T11:28:03.426Z,69.02
2018-03-22T11:29:03.439Z,68.73
2018-03-22T11:30:03.439Z,68.35
2018-03-22T11:31:03.484Z,68.64
2018-03-22T11:32:03.534Z,69.02
2018-03-22T11:33:03.470Z,68.64
2018-03-22T11:34:03.493Z,68.26
2018-03-22T11:35:03.477Z,69.11
2018-03-22T11:36:03.476Z,69.96
2018-03-22T11:37:03.545Z,69.40
2018-03-22T11:38:03.486Z,69.59
2018-03-22T11:39:03.494Z,69.02
2018-03-22T11:40:03.503Z,68.83
2018-03-22T11:41:03.517Z,68.92
2018-03-22T11:42:03.549Z,68.83
2018-03-22T11:43:03.519Z,69.02
2018-03-22T11:44:03.561Z,69.11
2018-03-22T11:45:03.537Z,69.02
2018-03-22T11:46:03.542Z,68.92
2018-03-22T11:47:03.590Z,69.59
2018-03-22T11:48:03.604Z,69.49
2018-03-22T11:49:03.569Z,69.30
2018-03-22T11:50:03.561Z,69.78
2018-03-22T11:51:03.573Z,69.49
2018-03-22T11:52:03.632Z,69.30
2018-03-22T11:53:03.582Z,70.44
2018-03-22T11:54:03.631Z,70.06
2018-03-22T11:55:03.620Z,69.49
2018-03-22T11:56:03.630Z,69.59
2018-03-22T11:57:03.612Z,69.59
2018-03-22T11:58:03.632Z,70.35
2018-03-22T11:59:03.664Z,70.54
2018-03-22T12:00:03.628Z,70.25
2018-03-22T12:01:03.635Z,70.54
2018-03-22T12:02:03.753Z,69.78
2018-03-22T12:03:03.658Z,69.68
2018-03-22T12:04:03.698Z,69.49
2018-03-22T12:05:03.681Z,70.15
2018-03-22T12:06:03.667Z,70.54
2018-03-22T12:07:03.721Z,70.25
2018-03-22T12:08:03.679Z,70.25
2018-03-22T12:09:03.683Z,70.73
2018-03-22T12:10:03.709Z,70.15
2018-03-22T12:11:03.763Z,70.06
2018-03-22T12:12:03.715Z,70.44
2018-03-22T12:13:03.772Z,70.06
2018-03-22T12:14:03.709Z,71.48
2018-03-22T12:15:03.726Z,69.96
2018-03-22T12:16:03.791Z,70.63
2018-03-22T12:17:03.732Z,70.35
2018-03-22T12:18:03.738Z,70.35
2018-03-22T12:19:03.765Z,70.25
2018-03-22T12:20:03.754Z,70.25
2018-03-22T12:21:03.775Z,69.96
2018-03-22T12:22:03.754Z,70.15
2018-03-22T12:23:03.781Z,70.35
2018-03-22T12:24:03.794Z,70.82
2018-03-22T12:25:03.831Z,70.82
2018-03-22T12:26:03.805Z,71.20
2018-03-22T12:27:03.813Z,70.54
2018-03-22T12:28:03.810Z,70.35
2018-03-22T12:29:03.797Z,70.63
2018-03-22T12:30:03.834Z,70.44
2018-03-22T12:31:03.842Z,70.73
2018-03-22T12:32:03.818Z,70.06
2018-03-22T12:33:03.827Z,70.06
2018-03-22T12:34:03.847Z,70.15
2018-03-22T12:35:03.840Z,70.38
2018-03-22T12:36:03.872Z,70.19
2018-03-22T12:37:03.897Z,70.10
2018-03-22T12:38:03.856Z,70.57
2018-03-22T12:39:03.863Z,70.29
2018-03-22T12:40:03.866Z,70.44
2018-03-22T12:41:03.905Z,70.38
2018-03-22T12:42:03.884Z,70.29
2018-03-22T12:43:03.980Z,69.81
2018-03-22T12:44:03.897Z,70.29
2018-03-22T12:45:03.905Z,70.19
2018-03-22T12:46:03.910Z,70.29
2018-03-22T12:47:03.917Z,70.19
2018-03-22T12:48:03.979Z,69.71
2018-03-22T12:49:03.935Z,69.53
2018-03-22T12:50:03.941Z,69.53
2018-03-22T12:51:03.948Z,69.81
2018-03-22T12:52:03.951Z,69.71
2018-03-22T12:53:03.982Z,69.71